Terminal Aerodrome Forecast
Issued by NWS Mt. Holly, NJ

Home | Current Version | Previous Version | Text Only | Print | Product List | Glossary On
Versions: 1 2 3 4 5 6 7 8 9 10 11 12 13 14 15 16 17 18 19 20 21 22 23 24 25 26 27 28 29 30 31 32 33 34 35 36 37 38 39 40 41
000
FTAK31 PANC 040527
TAFABE
TAF
PABE 040527Z 0406/0506 32008KT P6SM -RA BKN006 OVC014
     FM040900 29008KT 5SM -SHRA BR BKN006 OVC014
     FM041600 27012KT 5SM -SHRA SCT008 OVC015
     FM050400 27007KT P6SM VCSH SCT015 BKN025=

USA.gov is the U.S. government's official web portal to all federal, state and local government web resources and services.